createdAt,value
2022-12-04T00:01:16.503Z,27.58
2022-12-04T00:03:43.463Z,29.17
2022-12-04T00:06:16.242Z,29.88
2022-12-04T00:08:44.361Z,29.90
2022-12-04T00:11:12.988Z,32.00
2022-12-04T00:13:40.605Z,27.13
2022-12-04T00:16:10.193Z,30.08
2022-12-04T00:18:37.691Z,25.77
2022-12-04T00:21:06.774Z,32.08
2022-12-04T00:23:35.502Z,32.50
2022-12-04T00:26:04.696Z,29.73
2022-12-04T00:28:32.417Z,27.85
2022-12-04T00:30:59.481Z,27.80
2022-12-04T00:33:26.698Z,28.23
2022-12-04T00:36:01.451Z,26.13
2022-12-04T00:38:28.434Z,27.42
2022-12-04T00:40:56.118Z,29.83
2022-12-04T00:43:23.748Z,26.38
2022-12-04T00:45:51.066Z,31.45
2022-12-04T00:48:18.174Z,32.17
2022-12-04T00:50:45.207Z,35.28
2022-12-04T00:53:12.294Z,35.60
2022-12-04T00:55:40.798Z,36.55
2022-12-04T00:58:08.038Z,35.75
2022-12-04T01:00:36.080Z,37.17
2022-12-04T01:03:03.544Z,29.55
2022-12-04T01:05:30.676Z,39.03
2022-12-04T01:07:57.924Z,40.63
2022-12-04T01:10:25.577Z,43.97
2022-12-04T01:12:55.524Z,35.67
2022-12-04T01:15:22.454Z,35.38
2022-12-04T01:17:49.464Z,28.75
2022-12-04T01:20:17.056Z,31.80
2022-12-04T01:22:44.025Z,32.80
2022-12-04T01:25:11.142Z,30.10
2022-12-04T01:27:38.058Z,33.25
2022-12-04T01:30:05.789Z,34.22
2022-12-04T01:32:32.662Z,30.95
2022-12-04T01:34:59.906Z,34.45
2022-12-04T01:37:26.816Z,30.50
2022-12-04T01:39:54.040Z,30.55
2022-12-04T01:42:21.341Z,27.77
2022-12-04T01:45:25.973Z,36.90
2022-12-04T01:47:55.843Z,30.77
2022-12-04T01:50:23.133Z,28.27
2022-12-04T01:52:50.472Z,30.83
2022-12-04T01:55:17.581Z,29.60
2022-12-04T01:57:46.073Z,31.17
2022-12-04T02:00:16.327Z,30.48
2022-12-04T02:02:46.734Z,27.75
2022-12-04T02:05:20.421Z,30.92
2022-12-04T02:07:50.655Z,31.30
2022-12-04T02:10:24.697Z,31.85
2022-12-04T02:13:19.540Z,29.48
2022-12-04T02:15:54.221Z,30.80
2022-12-04T02:18:38.533Z,29.08
2022-12-04T02:21:08.511Z,29.20
2022-12-04T02:23:44.350Z,31.50
2022-12-04T02:26:20.333Z,33.97
2022-12-04T02:28:56.339Z,29.05
2022-12-04T02:31:30.867Z,34.35
2022-12-04T02:34:28.995Z,30.88
2022-12-04T02:37:18.595Z,30.35
2022-12-04T02:39:56.853Z,30.38
2022-12-04T02:42:53.566Z,30.55
2022-12-04T02:45:44.507Z,30.90
2022-12-04T02:48:16.917Z,35.85
2022-12-04T02:50:45.633Z,37.88
2022-12-04T02:53:27.040Z,29.17
2022-12-04T02:55:59.137Z,34.60
2022-12-04T02:58:51.633Z,32.78
2022-12-04T03:01:24.122Z,35.65
2022-12-04T03:04:03.594Z,34.80
2022-12-04T03:06:36.378Z,32.45
2022-12-04T03:09:10.973Z,36.70
2022-12-04T03:11:40.296Z,35.28
2022-12-04T03:14:36.435Z,35.28
2022-12-04T03:17:10.449Z,38.35
2022-12-04T03:19:42.850Z,36.58
2022-12-04T03:22:14.410Z,32.38
2022-12-04T03:24:50.345Z,39.08
2022-12-04T03:27:21.076Z,38.40
2022-12-04T03:30:07.929Z,37.40
2022-12-04T03:32:45.606Z,41.65
2022-12-04T03:35:48.399Z,38.47
2022-12-04T03:38:30.439Z,35.67
2022-12-04T03:41:14.726Z,40.92
2022-12-04T03:43:57.233Z,44.10
2022-12-04T03:46:27.128Z,41.30
2022-12-04T03:48:55.918Z,43.25
2022-12-04T03:51:32.891Z,43.83
2022-12-04T03:54:13.444Z,50.00
2022-12-04T03:56:46.827Z,41.20
2022-12-04T03:59:34.528Z,42.38
2022-12-04T04:02:04.702Z,36.55
2022-12-04T04:04:35.699Z,44.00
2022-12-04T04:07:18.781Z,35.35
2022-12-04T04:09:49.804Z,38.08
2022-12-04T04:12:39.248Z,44.92
2022-12-04T04:15:32.977Z,48.97
2022-12-04T04:18:20.221Z,35.33
2022-12-04T04:21:13.087Z,39.15
2022-12-04T04:24:03.745Z,41.42
2022-12-04T04:26:38.147Z,42.92
2022-12-04T04:29:05.056Z,38.38
2022-12-04T04:31:40.782Z,42.08
2022-12-04T04:34:21.035Z,43.85
2022-12-04T04:37:23.577Z,34.38
2022-12-04T04:40:10.996Z,40.72
2022-12-04T04:43:03.531Z,41.28
2022-12-04T04:45:40.883Z,40.72
2022-12-04T04:48:23.728Z,37.28
2022-12-04T04:50:51.913Z,46.40
2022-12-04T04:53:27.240Z,48.35
2022-12-04T04:55:54.695Z,43.53
2022-12-04T04:58:21.948Z,35.58
2022-12-04T05:01:06.657Z,42.13
2022-12-04T05:03:34.990Z,40.78
2022-12-04T05:06:02.124Z,36.10
2022-12-04T05:08:29.475Z,40.38
2022-12-04T05:10:56.404Z,37.28
2022-12-04T05:13:23.440Z,35.35
2022-12-04T05:16:01.843Z,39.25
2022-12-04T05:18:30.147Z,40.70
2022-12-04T05:20:57.726Z,36.28
2022-12-04T05:23:25.033Z,37.15
2022-12-04T05:25:58.653Z,37.58
2022-12-04T05:28:25.594Z,37.15
2022-12-04T05:31:02.327Z,32.50
2022-12-04T05:33:30.589Z,37.17
2022-12-04T05:36:06.073Z,34.80
2022-12-04T05:38:33.808Z,38.88
2022-12-04T05:41:02.510Z,38.88
2022-12-04T05:43:29.500Z,41.22
2022-12-04T05:46:00.505Z,40.83
2022-12-04T05:48:27.515Z,36.03
2022-12-04T05:50:54.626Z,38.58
2022-12-04T05:53:21.558Z,37.08
2022-12-04T05:55:59.625Z,37.88
2022-12-04T05:58:26.939Z,38.55
2022-12-04T06:00:54.535Z,33.58
2022-12-04T06:03:21.957Z,35.40
2022-12-04T06:05:49.225Z,36.67
2022-12-04T06:08:16.359Z,34.97
2022-12-04T06:10:43.404Z,38.15
2022-12-04T06:13:10.444Z,38.63
2022-12-04T06:15:41.941Z,41.42
2022-12-04T06:18:08.977Z,38.05
2022-12-04T06:20:36.004Z,42.30
2022-12-04T06:23:03.244Z,37.40
2022-12-04T06:25:30.273Z,46.30
2022-12-04T06:27:57.286Z,38.70
2022-12-04T06:30:24.197Z,38.08
2022-12-04T06:32:51.269Z,43.63
2022-12-04T06:35:18.275Z,34.90
2022-12-04T06:37:45.415Z,39.58
2022-12-04T06:40:12.825Z,38.15
2022-12-04T06:42:39.879Z,40.35
2022-12-04T06:45:07.314Z,46.25
2022-12-04T06:47:36.279Z,43.03
2022-12-04T06:50:04.376Z,40.58
2022-12-04T06:52:34.401Z,44.38
2022-12-04T06:55:01.886Z,45.75
2022-12-04T06:57:28.922Z,43.90
2022-12-04T06:59:56.138Z,45.80
2022-12-04T07:02:23.500Z,45.28
2022-12-04T07:04:56.502Z,40.25
2022-12-04T07:07:23.728Z,45.10
2022-12-04T07:09:50.748Z,39.70
2022-12-04T07:12:17.675Z,40.70
2022-12-04T07:14:44.882Z,38.13
2022-12-04T07:17:12.084Z,38.35
2022-12-04T07:19:39.161Z,45.10
2022-12-04T07:22:07.015Z,36.83
2022-12-04T07:24:33.969Z,35.22
2022-12-04T07:27:01.049Z,36.35
2022-12-04T07:29:28.332Z,38.50
2022-12-04T07:31:55.330Z,38.65
2022-12-04T07:34:24.042Z,39.55
2022-12-04T07:36:51.428Z,39.78
2022-12-04T07:39:18.442Z,38.17
2022-12-04T07:41:45.478Z,38.28
2022-12-04T07:44:12.872Z,42.20
2022-12-04T07:46:39.817Z,41.70
2022-12-04T07:49:07.598Z,40.25
2022-12-04T07:51:34.648Z,43.38
2022-12-04T07:54:04.096Z,42.78
2022-12-04T07:56:32.126Z,39.50
2022-12-04T07:59:00.741Z,46.47
2022-12-04T08:01:28.085Z,40.28
2022-12-04T08:03:58.180Z,45.10
2022-12-04T08:06:26.882Z,39.58
2022-12-04T08:08:54.376Z,42.10
2022-12-04T08:11:24.186Z,41.70
2022-12-04T08:13:56.281Z,43.70
2022-12-04T08:16:24.582Z,44.15
2022-12-04T08:18:52.772Z,38.60
2022-12-04T08:21:22.763Z,37.63
2022-12-04T08:23:52.673Z,35.83
2022-12-04T08:26:21.731Z,32.47
2022-12-04T08:28:50.075Z,33.78
2022-12-04T08:31:21.432Z,34.63
2022-12-04T08:33:50.543Z,31.35
2022-12-04T08:36:22.053Z,35.95
2022-12-04T08:38:51.185Z,36.17
2022-12-04T08:41:21.523Z,30.92
2022-12-04T08:43:49.278Z,33.30
2022-12-04T08:46:19.128Z,40.20
2022-12-04T08:48:46.637Z,34.72
2022-12-04T08:51:22.801Z,37.25
2022-12-04T08:53:54.983Z,32.55
2022-12-04T08:56:23.121Z,36.35
2022-12-04T08:58:52.556Z,32.85
2022-12-04T09:01:21.903Z,36.15
2022-12-04T09:03:50.387Z,32.78
2022-12-04T09:06:18.864Z,34.22
2022-12-04T09:08:46.601Z,35.97
2022-12-04T09:11:20.936Z,38.53
2022-12-04T09:13:48.666Z,39.50
2022-12-04T09:16:22.345Z,46.28
2022-12-04T09:18:50.274Z,36.38
2022-12-04T09:21:20.192Z,36.83
2022-12-04T09:23:47.671Z,38.78
2022-12-04T09:26:25.770Z,37.60
2022-12-04T09:28:54.293Z,36.53
2022-12-04T09:31:23.737Z,33.03
2022-12-04T09:33:51.391Z,35.47
2022-12-04T09:36:19.177Z,36.47
2022-12-04T09:38:49.610Z,36.33
2022-12-04T09:41:32.487Z,41.25
2022-12-04T09:44:09.262Z,31.40
2022-12-04T09:46:40.220Z,40.13
2022-12-04T09:49:20.202Z,39.72
2022-12-04T09:51:47.703Z,37.00
2022-12-04T09:54:24.664Z,37.03
2022-12-04T09:57:00.318Z,38.35
2022-12-04T09:59:32.584Z,35.05
2022-12-04T10:02:22.871Z,37.95
2022-12-04T10:04:50.287Z,41.40
2022-12-04T10:07:26.536Z,34.55
2022-12-04T10:10:15.365Z,35.95
2022-12-04T10:13:01.973Z,34.33
2022-12-04T10:16:15.890Z,38.83
2022-12-04T10:19:09.966Z,36.22
2022-12-04T10:21:48.805Z,39.63
2022-12-04T10:24:46.450Z,38.95
2022-12-04T10:27:26.291Z,39.78
2022-12-04T10:29:59.655Z,38.38
2022-12-04T10:32:31.972Z,34.70
2022-12-04T10:35:21.635Z,35.25
2022-12-04T10:37:56.352Z,43.65
2022-12-04T10:40:40.474Z,39.70
2022-12-04T10:43:43.115Z,35.90
2022-12-04T10:46:16.196Z,37.92
2022-12-04T10:48:47.850Z,37.53
2022-12-04T10:51:18.581Z,34.30
2022-12-04T10:53:49.803Z,35.92
2022-12-04T10:56:23.022Z,33.70
2022-12-04T10:59:05.319Z,41.78
2022-12-04T11:01:34.441Z,38.67
2022-12-04T11:04:09.660Z,38.53
2022-12-04T11:06:37.220Z,41.22
2022-12-04T11:09:04.830Z,33.58
2022-12-04T11:11:35.746Z,40.63
2022-12-04T11:14:13.800Z,37.55
2022-12-04T11:16:48.386Z,38.20
2022-12-04T11:19:24.626Z,45.22
2022-12-04T11:22:01.002Z,35.78
2022-12-04T11:24:39.117Z,34.10
2022-12-04T11:27:08.564Z,35.95
2022-12-04T11:29:43.411Z,36.40
2022-12-04T11:32:32.576Z,37.38
2022-12-04T11:35:08.120Z,41.97
2022-12-04T11:37:38.149Z,42.30
2022-12-04T11:40:18.235Z,36.17
2022-12-04T11:42:57.831Z,35.65
2022-12-04T11:45:25.430Z,37.33
2022-12-04T11:48:03.171Z,38.15
2022-12-04T11:50:36.569Z,35.03
2022-12-04T11:53:18.991Z,36.50
2022-12-04T11:56:08.322Z,39.67
2022-12-04T11:58:53.429Z,37.40
2022-12-04T12:01:25.100Z,43.83
2022-12-04T12:03:55.333Z,41.72
2022-12-04T12:06:42.356Z,43.58
2022-12-04T12:09:38.900Z,33.97
2022-12-04T12:12:23.308Z,38.80
2022-12-04T12:15:24.684Z,37.00
2022-12-04T12:18:39.019Z,41.80
2022-12-04T12:21:27.061Z,40.85
2022-12-04T12:24:22.591Z,44.00
2022-12-04T12:27:07.527Z,37.70
2022-12-04T12:29:42.646Z,38.38
2022-12-04T12:32:34.381Z,36.67
2022-12-04T12:35:02.050Z,40.65
2022-12-04T12:37:40.598Z,36.03
2022-12-04T12:40:25.113Z,43.85
2022-12-04T12:43:01.458Z,34.90
2022-12-04T12:48:00.785Z,43.97
2022-12-04T12:51:30.993Z,43.38
2022-12-04T12:54:10.566Z,39.45
2022-12-04T12:56:47.816Z,37.05
2022-12-04T12:59:24.678Z,39.80
2022-12-04T13:02:21.419Z,39.78
2022-12-04T13:04:54.314Z,37.67
2022-12-04T13:07:34.091Z,41.83
2022-12-04T13:10:15.754Z,38.42
2022-12-04T13:13:19.407Z,36.75
2022-12-04T13:15:52.612Z,35.63
2022-12-04T13:18:38.634Z,41.33
2022-12-04T13:21:09.396Z,43.45
2022-12-04T13:24:15.497Z,41.53
2022-12-04T13:27:21.977Z,45.10
2022-12-04T13:30:07.964Z,56.88
2022-12-04T13:32:53.806Z,41.88
2022-12-04T13:35:35.245Z,40.13
2022-12-04T13:38:20.993Z,45.40
2022-12-04T13:41:00.582Z,45.45
2022-12-04T13:43:43.243Z,43.25
2022-12-04T13:46:34.371Z,48.22
2022-12-04T13:49:26.479Z,38.25
2022-12-04T13:51:55.180Z,36.83
2022-12-04T13:54:24.730Z,39.72
2022-12-04T13:56:55.917Z,43.30
2022-12-04T13:59:23.199Z,41.38
2022-12-04T14:01:53.501Z,27.63
2022-12-04T14:04:53.263Z,36.67
2022-12-04T14:07:43.138Z,34.70
2022-12-04T14:10:17.219Z,40.40
2022-12-04T14:12:58.325Z,46.58
2022-12-04T14:15:28.825Z,38.65
2022-12-04T14:18:14.609Z,39.30
2022-12-04T14:20:46.097Z,42.87
2022-12-04T14:23:18.556Z,39.33
2022-12-04T14:25:46.757Z,42.00
2022-12-04T14:28:41.936Z,38.55
2022-12-04T14:31:10.180Z,38.42
2022-12-04T14:33:45.771Z,38.60
2022-12-04T14:36:21.138Z,37.53
2022-12-04T14:38:52.023Z,40.77
2022-12-04T14:41:27.697Z,38.95
2022-12-04T14:43:56.671Z,33.13
2022-12-04T14:46:39.961Z,34.13
2022-12-04T14:49:21.996Z,38.53
2022-12-04T14:51:49.547Z,37.92
2022-12-04T14:54:56.243Z,34.80
2022-12-04T14:57:40.130Z,30.83
2022-12-04T15:00:18.542Z,46.47
2022-12-04T15:02:49.481Z,38.25
2022-12-04T15:05:32.223Z,41.55
2022-12-04T15:08:08.656Z,38.70
2022-12-04T15:10:57.002Z,40.42
2022-12-04T15:13:33.183Z,33.70
2022-12-04T15:16:27.566Z,33.33
2022-12-04T15:19:00.630Z,36.63
2022-12-04T15:21:41.414Z,36.85
2022-12-04T15:24:11.126Z,33.50
2022-12-04T15:26:40.068Z,38.05
2022-12-04T15:29:10.954Z,37.08
2022-12-04T15:31:47.197Z,41.53
2022-12-04T15:34:18.428Z,45.70
2022-12-04T15:36:51.007Z,38.47
2022-12-04T15:39:30.713Z,37.78
2022-12-04T15:42:27.843Z,37.72
2022-12-04T15:45:07.038Z,38.30
2022-12-04T15:47:55.296Z,41.67
2022-12-04T15:50:28.198Z,37.22
2022-12-04T15:53:07.632Z,35.42
2022-12-04T15:55:50.330Z,43.83
2022-12-04T15:58:30.594Z,42.72
2022-12-04T16:01:12.595Z,45.30
2022-12-04T16:03:58.252Z,56.03
2022-12-04T16:06:53.679Z,45.22
2022-12-04T16:09:27.026Z,43.40
2022-12-04T16:12:17.188Z,44.00
2022-12-04T16:14:50.768Z,47.65
2022-12-04T16:17:22.875Z,49.20
2022-12-04T16:22:32.199Z,46.22
2022-12-04T16:25:03.872Z,54.13
2022-12-04T16:27:37.705Z,53.05
2022-12-04T16:30:11.998Z,46.05
2022-12-04T16:32:40.223Z,52.65
2022-12-04T16:35:09.556Z,52.03
2022-12-04T16:37:36.956Z,48.75
2022-12-04T16:40:17.834Z,42.40
2022-12-04T16:42:47.414Z,45.88
2022-12-04T16:45:28.223Z,42.28
2022-12-04T16:48:00.134Z,46.60
2022-12-04T16:50:41.094Z,42.58
2022-12-04T16:53:11.841Z,41.45
2022-12-04T16:55:40.515Z,40.95
2022-12-04T16:58:18.714Z,46.30
2022-12-04T17:01:01.353Z,46.67
2022-12-04T17:03:34.905Z,45.17
2022-12-04T17:06:12.722Z,45.15
2022-12-04T17:08:43.956Z,46.15
2022-12-04T17:11:19.310Z,51.95
2022-12-04T17:13:47.695Z,50.90
2022-12-04T17:16:20.660Z,42.45
2022-12-04T17:18:50.159Z,46.38
2022-12-04T17:21:18.626Z,47.05
2022-12-04T17:23:46.206Z,43.35
2022-12-04T17:26:20.459Z,45.97
2022-12-04T17:28:57.189Z,49.03
2022-12-04T17:31:37.087Z,46.22
2022-12-04T17:34:06.162Z,46.08
2022-12-04T17:36:33.741Z,49.58
2022-12-04T17:39:04.473Z,46.35
2022-12-04T17:41:36.136Z,39.95
2022-12-04T17:44:14.372Z,45.85
2022-12-04T17:46:49.276Z,47.78
2022-12-04T17:49:17.081Z,46.42
2022-12-04T17:51:48.661Z,48.05
2022-12-04T17:54:18.809Z,51.67
2022-12-04T17:56:58.139Z,48.58
2022-12-04T17:59:40.426Z,55.22
2022-12-04T18:02:30.492Z,53.33
2022-12-04T18:05:05.293Z,57.22
2022-12-04T18:07:37.745Z,61.83
2022-12-04T18:10:06.664Z,49.05
2022-12-04T18:12:37.421Z,59.22
2022-12-04T18:15:09.314Z,56.08
2022-12-04T18:17:40.383Z,55.15
2022-12-04T18:20:13.506Z,60.17
2022-12-04T18:22:48.478Z,62.50
2022-12-04T18:25:22.131Z,61.08
2022-12-04T18:30:43.735Z,61.88
2022-12-04T18:33:18.826Z,55.70
2022-12-04T18:36:04.056Z,70.53
2022-12-04T18:38:37.654Z,60.08
2022-12-04T18:41:11.273Z,64.57
2022-12-04T18:43:41.821Z,56.03
2022-12-04T18:46:16.483Z,64.32
2022-12-04T18:48:45.669Z,70.38
2022-12-04T18:51:16.380Z,58.80
2022-12-04T18:53:45.357Z,59.10
2022-12-04T18:56:13.925Z,56.92
2022-12-04T18:58:43.042Z,61.00
2022-12-04T19:01:16.918Z,56.40
2022-12-04T19:03:45.191Z,57.53
2022-12-04T19:06:14.826Z,58.95
2022-12-04T19:08:43.431Z,58.55
2022-12-04T19:11:14.440Z,56.58
2022-12-04T19:13:42.821Z,58.33
2022-12-04T19:16:17.928Z,58.20
2022-12-04T19:18:46.819Z,62.90
2022-12-04T19:21:18.756Z,60.38
2022-12-04T19:24:06.535Z,61.13
2022-12-04T19:26:35.097Z,55.88
2022-12-04T19:29:05.895Z,60.35
2022-12-04T19:31:38.449Z,54.55
2022-12-04T19:34:06.547Z,55.50
2022-12-04T19:36:35.370Z,54.25
2022-12-04T19:39:04.758Z,58.00
2022-12-04T19:41:37.922Z,51.33
2022-12-04T19:44:32.460Z,52.05
2022-12-04T19:46:52.863Z,57.90
2022-12-04T19:49:20.824Z,59.65
2022-12-04T19:51:51.876Z,55.60
2022-12-04T19:54:23.846Z,56.40
2022-12-04T19:56:55.482Z,61.53
2022-12-04T19:59:24.256Z,55.13
2022-12-04T20:01:52.157Z,58.08
2022-12-04T20:04:23.766Z,54.72
2022-12-04T20:06:51.769Z,60.10
2022-12-04T20:09:24.111Z,55.08
2022-12-04T20:11:52.921Z,57.58
2022-12-04T20:14:20.372Z,62.65
2022-12-04T20:16:48.358Z,48.45
2022-12-04T20:19:19.461Z,59.03
2022-12-04T20:21:48.336Z,53.25
2022-12-04T20:24:17.852Z,49.63
2022-12-04T20:26:46.242Z,56.67
2022-12-04T20:29:17.320Z,63.92
2022-12-04T20:31:47.038Z,57.78
2022-12-04T20:34:18.562Z,57.42
2022-12-04T20:36:47.668Z,68.80
2022-12-04T20:39:16.881Z,62.08
2022-12-04T20:41:44.233Z,62.30
2022-12-04T20:44:15.701Z,62.83
2022-12-04T20:46:43.874Z,55.85
2022-12-04T20:49:20.850Z,68.78
2022-12-04T20:51:49.487Z,76.90
2022-12-04T20:54:19.562Z,57.58
2022-12-04T20:56:49.355Z,67.88
2022-12-04T20:59:19.350Z,67.97
2022-12-04T21:01:47.224Z,65.13
2022-12-04T21:04:14.672Z,67.28
2022-12-04T21:06:42.533Z,74.35
2022-12-04T21:09:18.724Z,61.25
2022-12-04T21:11:49.215Z,68.70
2022-12-04T21:14:53.130Z,67.53
2022-12-04T21:17:20.389Z,71.93
2022-12-04T21:19:50.298Z,75.05
2022-12-04T21:22:19.061Z,78.70
2022-12-04T21:24:46.245Z,66.72
2022-12-04T21:27:19.108Z,76.10
2022-12-04T21:29:48.556Z,79.65
2022-12-04T21:32:15.757Z,62.97
2022-12-04T21:34:42.724Z,70.55
2022-12-04T21:37:09.887Z,65.00
2022-12-04T21:39:37.529Z,68.57
2022-12-04T21:42:23.779Z,61.88
2022-12-04T21:44:55.704Z,69.70
2022-12-04T21:47:23.916Z,65.95
2022-12-04T21:49:51.202Z,61.83
2022-12-04T21:52:22.627Z,68.80
2022-12-04T21:54:54.301Z,78.22
2022-12-04T21:57:22.807Z,74.38
2022-12-04T21:59:52.731Z,73.80
2022-12-04T22:02:21.084Z,72.38
2022-12-04T22:04:48.779Z,65.78
2022-12-04T22:07:18.065Z,64.70
2022-12-04T22:09:45.405Z,72.53
2022-12-04T22:12:41.272Z,61.63
2022-12-04T22:14:59.582Z,79.63
2022-12-04T22:17:30.049Z,69.25
2022-12-04T22:19:57.425Z,49.45
2022-12-04T22:22:24.778Z,70.90
2022-12-04T22:24:51.895Z,66.47
2022-12-04T22:27:18.984Z,86.47
2022-12-04T22:29:50.560Z,63.75
2022-12-04T22:32:19.014Z,78.30
2022-12-04T22:34:49.158Z,76.28
2022-12-04T22:37:16.845Z,68.97
2022-12-04T22:39:44.368Z,74.68
2022-12-04T22:42:11.232Z,68.60
2022-12-04T22:44:38.340Z,70.43
2022-12-04T22:47:05.620Z,71.03
2022-12-04T22:49:33.013Z,73.43
2022-12-04T22:52:00.306Z,73.68
2022-12-04T22:54:28.079Z,72.85
2022-12-04T22:56:55.074Z,76.70
2022-12-04T22:59:22.317Z,76.28
2022-12-04T23:01:49.391Z,83.13
2022-12-04T23:04:16.340Z,77.63
2022-12-04T23:06:43.532Z,80.53
2022-12-04T23:09:16.531Z,85.50
2022-12-04T23:11:44.326Z,83.63
2022-12-04T23:14:14.754Z,83.38
2022-12-04T23:16:42.272Z,80.97
2022-12-04T23:19:13.480Z,81.40
2022-12-04T23:21:40.872Z,83.40
2022-12-04T23:24:08.253Z,73.68
2022-12-04T23:26:38.017Z,73.72
2022-12-04T23:29:23.423Z,77.22
2022-12-04T23:31:53.121Z,76.47
2022-12-04T23:34:20.159Z,75.35
2022-12-04T23:36:47.019Z,78.10
2022-12-04T23:39:14.060Z,73.43
2022-12-04T23:41:40.967Z,67.05
2022-12-04T23:44:07.981Z,64.45
2022-12-04T23:46:34.904Z,67.55
2022-12-04T23:49:02.277Z,65.65
2022-12-04T23:51:29.834Z,75.68
2022-12-04T23:53:57.137Z,64.50
2022-12-04T23:56:26.418Z,68.68
2022-12-04T23:58:55.638Z,71.50
